createdAt,value
2022-11-26T00:00:24.041Z,5.46
2022-11-26T00:00:54.593Z,5.46
2022-11-26T00:01:25.673Z,5.46
2022-11-26T00:01:57.098Z,5.46
2022-11-26T00:02:29.071Z,5.46
2022-11-26T00:02:59.860Z,5.46
2022-11-26T00:03:30.592Z,5.46
2022-11-26T00:04:01.582Z,5.46
2022-11-26T00:04:31.619Z,5.46
2022-11-26T00:05:03.287Z,5.46
2022-11-26T00:05:34.043Z,5.46
2022-11-26T00:06:05.178Z,5.46
2022-11-26T00:06:36.086Z,5.46
2022-11-26T00:07:06.471Z,5.46
2022-11-26T00:07:39.129Z,5.46
2022-11-26T00:08:09.687Z,5.46
2022-11-26T00:08:41.740Z,5.46
2022-11-26T00:09:42.101Z,5.46
2022-11-26T00:10:13.548Z,5.46
2022-11-26T00:11:15.789Z,5.46
2022-11-26T00:11:45.755Z,5.46
2022-11-26T00:12:18.660Z,5.46
2022-11-26T00:12:48.999Z,5.46
2022-11-26T00:13:20.163Z,5.46
2022-11-26T00:13:50.887Z,5.46
2022-11-26T00:14:21.224Z,5.46
2022-11-26T00:14:52.336Z,5.46
2022-11-26T00:15:23.413Z,5.46
2022-11-26T00:15:54.576Z,5.46
2022-11-26T00:16:25.289Z,5.46
2022-11-26T00:16:55.527Z,5.46
2022-11-26T00:17:26.807Z,5.46
2022-11-26T00:17:58.421Z,5.46
2022-11-26T00:18:29.666Z,5.46
2022-11-26T00:19:00.808Z,5.46
2022-11-26T00:19:31.132Z,5.46
2022-11-26T00:20:02.257Z,5.46
2022-11-26T00:20:32.755Z,5.46
2022-11-26T00:21:03.708Z,5.46
2022-11-26T00:21:35.552Z,5.46
2022-11-26T00:22:06.053Z,5.46
2022-11-26T00:22:36.991Z,5.46
2022-11-26T00:23:08.680Z,5.46
2022-11-26T00:23:40.390Z,5.46
2022-11-26T00:24:10.853Z,5.46
2022-11-26T00:24:41.286Z,5.46
2022-11-26T00:25:11.851Z,5.46
2022-11-26T00:25:42.998Z,5.46
2022-11-26T00:26:14.114Z,5.46
2022-11-26T00:26:45.076Z,5.46
2022-11-26T00:27:15.530Z,5.46
2022-11-26T00:27:46.759Z,5.46
2022-11-26T00:28:18.309Z,5.46
2022-11-26T00:29:21.009Z,5.46
2022-11-26T00:29:51.552Z,5.46
2022-11-26T00:30:23.074Z,5.46
2022-11-26T00:30:54.349Z,5.46
2022-11-26T00:31:24.236Z,5.46
2022-11-26T00:31:55.344Z,5.46
2022-11-26T00:32:26.428Z,5.46
2022-11-26T00:32:57.301Z,5.46
2022-11-26T00:33:28.655Z,5.46
2022-11-26T00:34:00.709Z,5.46
2022-11-26T00:34:30.395Z,5.46
2022-11-26T00:35:01.264Z,5.46
2022-11-26T00:35:32.035Z,5.46
2022-11-26T00:36:03.702Z,5.46
2022-11-26T00:36:33.989Z,5.46
2022-11-26T00:37:05.633Z,5.46
2022-11-26T00:37:36.382Z,5.46
2022-11-26T00:38:07.073Z,5.46
2022-11-26T00:38:38.010Z,5.46
2022-11-26T00:39:10.837Z,5.46
2022-11-26T00:39:42.123Z,5.46
2022-11-26T00:40:13.223Z,5.46
2022-11-26T00:40:42.504Z,5.46
2022-11-26T00:41:44.540Z,5.46
2022-11-26T00:42:15.056Z,5.46
2022-11-26T00:43:03.995Z,5.46
2022-11-26T00:43:16.916Z,5.46
2022-11-26T00:43:49.703Z,5.46
2022-11-26T00:44:19.439Z,5.46
2022-11-26T00:44:50.939Z,5.46
2022-11-26T00:45:21.625Z,5.46
2022-11-26T00:45:52.044Z,5.46
2022-11-26T00:46:23.721Z,5.46
2022-11-26T00:46:54.351Z,5.36
2022-11-26T00:47:24.939Z,5.36
2022-11-26T00:47:55.845Z,5.36
2022-11-26T00:48:26.595Z,5.36
2022-11-26T00:48:58.754Z,5.36
2022-11-26T00:50:01.321Z,5.36
2022-11-26T00:50:31.444Z,5.36
2022-11-26T00:51:02.464Z,5.36
2022-11-26T00:51:33.639Z,5.36
2022-11-26T00:52:04.106Z,5.36
2022-11-26T00:52:35.362Z,5.26
2022-11-26T00:53:06.080Z,5.26
2022-11-26T00:53:36.999Z,5.26
2022-11-26T00:54:07.944Z,5.26
2022-11-26T00:54:39.927Z,5.26
2022-11-26T00:55:10.932Z,5.26
2022-11-26T00:55:41.552Z,5.26
2022-11-26T00:56:11.929Z,5.26
2022-11-26T00:56:43.318Z,5.26
2022-11-26T00:57:14.228Z,5.36
2022-11-26T00:57:44.894Z,5.36
2022-11-26T00:58:16.678Z,5.36
2022-11-26T00:58:46.922Z,5.36
2022-11-26T00:59:18.050Z,5.36
2022-11-26T00:59:50.700Z,5.36
2022-11-26T01:00:21.733Z,5.36
2022-11-26T01:00:51.706Z,5.36
2022-11-26T01:01:22.772Z,5.36
2022-11-26T01:01:53.466Z,5.36
2022-11-26T01:02:24.340Z,5.36
2022-11-26T01:02:55.478Z,5.26
2022-11-26T01:03:26.399Z,5.26
2022-11-26T01:03:56.944Z,5.26
2022-11-26T01:04:27.808Z,5.26
2022-11-26T01:04:59.995Z,5.26
2022-11-26T01:05:30.459Z,5.26
2022-11-26T01:06:01.399Z,5.26
2022-11-26T01:06:32.057Z,5.26
2022-11-26T01:07:03.627Z,5.26
2022-11-26T01:07:35.034Z,5.26
2022-11-26T01:08:05.529Z,5.26
2022-11-26T01:08:36.453Z,5.26
2022-11-26T01:09:06.770Z,5.26
2022-11-26T01:09:38.276Z,5.26
2022-11-26T01:10:10.865Z,5.26
2022-11-26T01:10:41.916Z,5.26
2022-11-26T01:11:11.668Z,5.16
2022-11-26T01:11:42.910Z,5.16
2022-11-26T01:12:13.663Z,5.16
2022-11-26T01:12:44.538Z,5.16
2022-11-26T01:13:15.002Z,5.16
2022-11-26T01:13:46.096Z,5.16
2022-11-26T01:14:18.017Z,5.16
2022-11-26T01:14:48.469Z,5.16
2022-11-26T01:15:21.619Z,5.16
2022-11-26T01:15:51.311Z,5.16
2022-11-26T01:16:22.413Z,5.26
2022-11-26T01:16:52.043Z,5.26
2022-11-26T01:17:23.607Z,5.26
2022-11-26T01:17:54.201Z,5.26
2022-11-26T01:18:24.921Z,5.26
2022-11-26T01:18:55.972Z,5.26
2022-11-26T01:19:26.974Z,5.26
2022-11-26T01:19:57.940Z,5.26
2022-11-26T01:20:29.564Z,5.26
2022-11-26T01:21:00.872Z,5.26
2022-11-26T01:21:31.391Z,5.26
2022-11-26T01:22:02.371Z,5.26
2022-11-26T01:22:33.420Z,5.26
2022-11-26T01:23:05.161Z,5.26
2022-11-26T01:23:53.269Z,5.26
2022-11-26T01:24:07.048Z,5.26
2022-11-26T01:24:37.465Z,5.16
2022-11-26T01:25:08.738Z,5.16
2022-11-26T01:25:40.098Z,5.16
2022-11-26T01:26:12.994Z,5.16
2022-11-26T01:26:43.321Z,5.16
2022-11-26T01:27:14.015Z,5.16
2022-11-26T01:27:44.387Z,5.16
2022-11-26T01:28:14.130Z,5.16
2022-11-26T01:28:45.214Z,5.16
2022-11-26T01:29:16.172Z,5.16
2022-11-26T01:29:47.717Z,5.16
2022-11-26T01:30:22.231Z,5.16
2022-11-26T01:30:50.947Z,5.16
2022-11-26T01:31:22.716Z,5.06
2022-11-26T01:31:52.917Z,5.06
2022-11-26T01:32:26.611Z,4.96
2022-11-26T01:32:54.033Z,4.96
2022-11-26T01:33:24.320Z,4.96
2022-11-26T01:33:55.044Z,4.96
2022-11-26T01:34:44.441Z,4.86
2022-11-26T01:34:56.916Z,4.86
2022-11-26T01:35:28.495Z,4.86
2022-11-26T01:36:00.897Z,4.76
2022-11-26T01:36:32.836Z,4.76
2022-11-26T01:37:01.961Z,4.76
2022-11-26T01:37:32.058Z,4.76
2022-11-26T01:38:34.504Z,4.76
2022-11-26T01:39:05.426Z,4.86
2022-11-26T01:39:35.893Z,4.86
2022-11-26T01:40:07.767Z,4.86
2022-11-26T01:40:38.344Z,4.86
2022-11-26T01:41:09.947Z,4.86
2022-11-26T01:41:43.961Z,4.86
2022-11-26T01:42:13.620Z,4.86
2022-11-26T01:42:43.980Z,4.96
2022-11-26T01:43:31.153Z,4.96
2022-11-26T01:43:45.015Z,4.96
2022-11-26T01:44:15.125Z,4.96
2022-11-26T01:44:46.750Z,4.96
2022-11-26T01:45:19.280Z,4.96
2022-11-26T01:45:49.265Z,4.96
2022-11-26T01:46:19.587Z,4.96
2022-11-26T01:46:52.128Z,4.96
2022-11-26T01:47:22.233Z,5.06
2022-11-26T01:48:08.399Z,5.06
2022-11-26T01:48:23.821Z,5.06
2022-11-26T01:48:54.521Z,5.06
2022-11-26T01:49:25.711Z,5.06
2022-11-26T01:49:56.118Z,5.16
2022-11-26T01:50:27.220Z,5.16
2022-11-26T01:51:31.330Z,5.16
2022-11-26T01:52:02.328Z,5.16
2022-11-26T01:52:32.136Z,5.16
2022-11-26T01:53:03.190Z,5.16
2022-11-26T01:53:33.533Z,5.16
2022-11-26T01:54:04.597Z,5.26
2022-11-26T01:54:36.470Z,5.26
2022-11-26T01:55:07.795Z,5.26
2022-11-26T01:55:37.422Z,5.26
2022-11-26T01:56:08.074Z,5.26
2022-11-26T01:56:39.753Z,5.26
2022-11-26T01:57:12.063Z,5.26
2022-11-26T01:57:42.325Z,5.26
2022-11-26T01:58:13.370Z,5.26
2022-11-26T01:58:43.819Z,5.26
2022-11-26T01:59:14.596Z,5.26
2022-11-26T01:59:45.386Z,5.26
2022-11-26T02:00:17.417Z,5.26
2022-11-26T02:00:47.596Z,5.26
2022-11-26T02:01:18.273Z,5.36
2022-11-26T02:01:49.275Z,5.36
2022-11-26T02:02:21.469Z,5.36
2022-11-26T02:03:28.125Z,5.36
2022-11-26T02:03:45.349Z,5.36
2022-11-26T02:04:34.922Z,5.36
2022-11-26T02:04:47.770Z,5.36
2022-11-26T02:05:18.189Z,5.36
2022-11-26T02:05:49.041Z,5.36
2022-11-26T02:06:22.010Z,5.36
2022-11-26T02:06:52.485Z,5.36
2022-11-26T02:07:24.074Z,5.36
2022-11-26T02:08:11.502Z,5.36
2022-11-26T02:08:24.617Z,5.36
2022-11-26T02:08:55.375Z,5.36
2022-11-26T02:09:26.005Z,5.36
2022-11-26T02:10:28.497Z,5.46
2022-11-26T02:10:59.699Z,5.46
2022-11-26T02:11:32.067Z,5.46
2022-11-26T02:12:03.500Z,5.46
2022-11-26T02:12:33.182Z,5.46
2022-11-26T02:13:35.079Z,5.46
2022-11-26T02:14:05.835Z,5.46
2022-11-26T02:14:36.791Z,5.46
2022-11-26T02:15:07.949Z,5.46
2022-11-26T02:15:38.519Z,5.46
2022-11-26T02:16:09.021Z,5.46
2022-11-26T02:16:42.519Z,5.46
2022-11-26T02:17:12.358Z,5.46
2022-11-26T02:17:44.117Z,5.46
2022-11-26T02:18:13.467Z,5.46
2022-11-26T02:18:45.131Z,5.46
2022-11-26T02:19:15.524Z,5.46
2022-11-26T02:20:05.104Z,5.46
2022-11-26T02:20:18.364Z,5.46
2022-11-26T02:20:48.127Z,5.46
2022-11-26T02:21:19.317Z,5.46
2022-11-26T02:22:22.142Z,5.56
2022-11-26T02:22:54.123Z,5.56
2022-11-26T02:23:24.087Z,5.56
2022-11-26T02:23:55.034Z,5.56
2022-11-26T02:24:26.409Z,5.56
2022-11-26T02:24:56.837Z,5.56
2022-11-26T02:25:27.494Z,5.56
2022-11-26T02:25:58.257Z,5.56
2022-11-26T02:26:29.350Z,5.56
2022-11-26T02:27:01.465Z,5.56
2022-11-26T02:27:32.212Z,5.56
2022-11-26T02:28:03.528Z,5.56
2022-11-26T02:28:33.720Z,5.56
2022-11-26T02:29:04.522Z,5.46
2022-11-26T02:29:35.717Z,5.46
2022-11-26T02:30:07.327Z,5.46
2022-11-26T02:30:37.383Z,5.46
2022-11-26T02:31:08.283Z,5.46
2022-11-26T02:31:39.287Z,5.46
2022-11-26T02:32:12.297Z,5.56
2022-11-26T02:32:42.716Z,5.56
2022-11-26T02:33:13.397Z,5.56
2022-11-26T02:33:45.273Z,5.56
2022-11-26T02:34:15.949Z,5.56
2022-11-26T02:34:51.963Z,5.56
2022-11-26T02:35:16.123Z,5.56
2022-11-26T02:35:47.078Z,5.56
2022-11-26T02:36:18.379Z,5.56
2022-11-26T02:36:49.582Z,5.56
2022-11-26T02:37:21.687Z,5.46
2022-11-26T02:37:53.143Z,5.46
2022-11-26T02:38:23.378Z,5.46
2022-11-26T02:38:54.383Z,5.46
2022-11-26T02:39:25.127Z,5.46
2022-11-26T02:39:55.523Z,5.46
2022-11-26T02:40:27.167Z,5.46
2022-11-26T02:40:57.536Z,5.46
2022-11-26T02:41:28.387Z,5.46
2022-11-26T02:41:59.612Z,5.46
2022-11-26T02:42:31.755Z,5.36
2022-11-26T02:43:03.492Z,5.36
2022-11-26T02:43:34.292Z,5.36
2022-11-26T02:44:04.455Z,5.36
2022-11-26T02:44:36.243Z,5.36
2022-11-26T02:45:06.630Z,5.36
2022-11-26T02:45:36.919Z,5.36
2022-11-26T02:46:08.568Z,5.26
2022-11-26T02:46:38.529Z,5.26
2022-11-26T02:47:09.449Z,5.26
2022-11-26T02:47:41.257Z,5.26
2022-11-26T02:48:13.061Z,5.26
2022-11-26T02:48:44.211Z,5.26
2022-11-26T02:49:14.734Z,5.26
2022-11-26T02:49:45.352Z,5.26
2022-11-26T02:50:19.756Z,5.26
2022-11-26T02:50:46.553Z,5.26
2022-11-26T02:51:17.698Z,5.26
2022-11-26T02:51:48.558Z,5.26
2022-11-26T02:52:19.531Z,5.26
2022-11-26T02:52:51.345Z,5.26
2022-11-26T02:53:23.577Z,5.26
2022-11-26T02:53:52.581Z,5.26
2022-11-26T02:54:24.811Z,5.26
2022-11-26T02:54:55.224Z,5.16
2022-11-26T02:55:38.136Z,5.16
2022-11-26T02:55:56.369Z,5.16
2022-11-26T02:56:27.718Z,5.16
2022-11-26T02:56:58.924Z,5.16
2022-11-26T02:57:29.729Z,5.16
2022-11-26T02:58:00.969Z,5.06
2022-11-26T02:58:32.664Z,5.06
2022-11-26T02:59:04.301Z,5.06
2022-11-26T02:59:33.809Z,4.96
2022-11-26T03:00:06.023Z,4.96
2022-11-26T03:00:44.571Z,4.96
2022-11-26T03:01:28.217Z,4.96
2022-11-26T03:01:37.607Z,4.96
2022-11-26T03:02:08.488Z,4.96
2022-11-26T03:02:40.136Z,4.96
2022-11-26T03:03:13.070Z,4.96
2022-11-26T03:04:08.830Z,4.96
2022-11-26T03:04:13.225Z,4.96
2022-11-26T03:04:44.758Z,4.96
2022-11-26T03:05:15.489Z,4.96
2022-11-26T03:05:45.770Z,4.96
2022-11-26T03:06:17.230Z,4.96
2022-11-26T03:06:48.351Z,5.06
2022-11-26T03:07:18.939Z,5.06
2022-11-26T03:07:49.985Z,5.06
2022-11-26T03:08:21.431Z,5.06
2022-11-26T03:08:52.968Z,5.06
2022-11-26T03:09:27.501Z,5.06
2022-11-26T03:09:54.009Z,5.06
2022-11-26T03:10:25.895Z,5.06
2022-11-26T03:10:57.360Z,5.06
2022-11-26T03:11:32.025Z,5.06
2022-11-26T03:11:57.662Z,5.06
2022-11-26T03:12:28.679Z,5.06
2022-11-26T03:13:00.057Z,5.06
2022-11-26T03:13:53.908Z,5.06
2022-11-26T03:14:02.476Z,5.06
2022-11-26T03:14:33.319Z,5.06
2022-11-26T03:15:05.386Z,5.06
2022-11-26T03:15:35.152Z,5.06
2022-11-26T03:16:05.987Z,5.06
2022-11-26T03:16:36.884Z,5.06
2022-11-26T03:17:08.118Z,5.06
2022-11-26T03:17:38.830Z,5.06
2022-11-26T03:18:10.032Z,5.06
2022-11-26T03:18:41.422Z,5.06
2022-11-26T03:19:13.334Z,5.06
2022-11-26T03:19:44.150Z,5.06
2022-11-26T03:20:15.179Z,5.06
2022-11-26T03:20:46.257Z,5.06
2022-11-26T03:21:16.425Z,5.06
2022-11-26T03:21:47.476Z,5.06
2022-11-26T03:22:17.668Z,5.06
2022-11-26T03:22:48.550Z,5.06
2022-11-26T03:23:24.626Z,5.06
2022-11-26T03:23:50.588Z,5.06
2022-11-26T03:24:22.365Z,5.06
2022-11-26T03:24:53.484Z,5.06
2022-11-26T03:25:24.654Z,5.06
2022-11-26T03:25:55.687Z,5.06
2022-11-26T03:26:27.296Z,5.06
2022-11-26T03:26:57.085Z,4.96
2022-11-26T03:27:27.310Z,4.96
2022-11-26T03:27:58.781Z,4.96
2022-11-26T03:28:34.354Z,4.96
2022-11-26T03:29:00.598Z,4.96
2022-11-26T03:29:32.276Z,4.96
2022-11-26T03:30:13.014Z,4.96
2022-11-26T03:30:55.889Z,4.96
2022-11-26T03:31:04.534Z,4.96
2022-11-26T03:31:36.378Z,4.96
2022-11-26T03:32:06.982Z,4.96
2022-11-26T03:32:38.062Z,4.96
2022-11-26T03:33:16.845Z,4.96
2022-11-26T03:33:39.740Z,4.96
2022-11-26T03:34:11.243Z,4.96
2022-11-26T03:34:43.997Z,4.96
2022-11-26T03:35:14.359Z,4.96
2022-11-26T03:35:46.040Z,4.96
2022-11-26T03:36:15.609Z,4.96
2022-11-26T03:36:46.259Z,4.96
2022-11-26T03:37:16.997Z,4.96
2022-11-26T03:38:22.346Z,4.96
2022-11-26T03:38:49.738Z,5.06
2022-11-26T03:39:21.172Z,5.06
2022-11-26T03:39:52.218Z,5.06
2022-11-26T03:40:23.981Z,5.06
2022-11-26T03:40:55.891Z,5.06
2022-11-26T03:41:26.502Z,5.06
2022-11-26T03:41:56.242Z,5.06
2022-11-26T03:42:46.247Z,5.06
2022-11-26T03:42:58.490Z,5.06
2022-11-26T03:43:28.785Z,5.06
2022-11-26T03:44:00.014Z,5.06
2022-11-26T03:44:30.986Z,5.06
2022-11-26T03:45:02.570Z,5.06
2022-11-26T03:45:34.523Z,5.06
2022-11-26T03:46:05.182Z,5.06
2022-11-26T03:46:35.895Z,5.06
2022-11-26T03:47:06.971Z,4.96
2022-11-26T03:47:37.015Z,4.96
2022-11-26T03:48:08.327Z,4.96
2022-11-26T03:48:38.684Z,4.96
2022-11-26T03:49:10.280Z,4.96
2022-11-26T03:49:40.814Z,4.96
2022-11-26T03:50:12.943Z,4.96
2022-11-26T03:50:43.731Z,4.96
2022-11-26T03:51:15.053Z,4.96
2022-11-26T03:51:46.082Z,4.96
2022-11-26T03:52:16.957Z,4.96
2022-11-26T03:52:47.324Z,4.96
2022-11-26T03:53:19.145Z,4.96
2022-11-26T03:53:49.012Z,4.96
2022-11-26T03:54:19.672Z,4.96
2022-11-26T03:54:56.120Z,4.96
2022-11-26T03:55:21.755Z,4.96
2022-11-26T03:55:54.382Z,4.96
2022-11-26T03:56:25.340Z,4.96
2022-11-26T03:56:56.209Z,4.96
2022-11-26T03:57:26.608Z,4.96
2022-11-26T03:58:15.626Z,4.96
2022-11-26T03:58:58.950Z,4.96
2022-11-26T03:59:30.323Z,4.96
2022-11-26T04:00:01.967Z,4.96
2022-11-26T04:00:32.861Z,4.96
2022-11-26T04:01:04.116Z,4.96
2022-11-26T04:01:34.970Z,4.96
2022-11-26T04:02:11.108Z,4.96
2022-11-26T04:02:36.235Z,4.96
2022-11-26T04:03:07.881Z,4.96
2022-11-26T04:03:38.129Z,4.96
2022-11-26T04:04:08.958Z,4.96
2022-11-26T04:04:40.583Z,4.96
2022-11-26T04:05:10.937Z,4.96
2022-11-26T04:05:48.225Z,4.96
2022-11-26T04:06:14.011Z,4.96
2022-11-26T04:06:45.504Z,4.96
2022-11-26T04:07:18.136Z,4.96
2022-11-26T04:07:48.037Z,4.96
2022-11-26T04:08:17.313Z,4.96
2022-11-26T04:08:48.740Z,5.06
2022-11-26T04:09:18.602Z,5.06
2022-11-26T04:09:49.924Z,5.06
2022-11-26T04:10:21.700Z,5.06
2022-11-26T04:10:52.471Z,5.06
2022-11-26T04:11:24.729Z,5.06
2022-11-26T04:11:55.459Z,4.96
2022-11-26T04:12:26.295Z,4.96
2022-11-26T04:12:57.017Z,5.06
2022-11-26T04:13:27.674Z,5.06
2022-11-26T04:13:58.499Z,5.06
2022-11-26T04:14:28.863Z,5.06
2022-11-26T04:15:00.108Z,5.06
2022-11-26T04:15:32.177Z,5.06
2022-11-26T04:16:01.810Z,5.06
2022-11-26T04:16:34.039Z,5.06
2022-11-26T04:17:05.315Z,5.16
2022-11-26T04:17:36.508Z,5.16
2022-11-26T04:18:37.469Z,5.16
2022-11-26T04:19:08.094Z,5.16
2022-11-26T04:19:38.968Z,5.16
2022-11-26T04:20:10.936Z,5.16
2022-11-26T04:20:41.325Z,5.16
2022-11-26T04:21:12.280Z,5.16
2022-11-26T04:21:44.942Z,5.16
2022-11-26T04:22:15.363Z,5.16
2022-11-26T04:22:59.036Z,5.26
2022-11-26T04:23:17.426Z,5.26
2022-11-26T04:23:48.939Z,5.26
2022-11-26T04:24:18.291Z,5.26
2022-11-26T04:24:50.353Z,5.26
2022-11-26T04:25:20.814Z,5.26
2022-11-26T04:26:22.100Z,5.26
2022-11-26T04:26:53.962Z,5.26
2022-11-26T04:27:25.571Z,5.26
2022-11-26T04:27:56.490Z,5.26
2022-11-26T04:28:27.444Z,5.26
2022-11-26T04:28:58.335Z,5.26
2022-11-26T04:29:28.116Z,5.26
2022-11-26T04:29:59.094Z,5.26
2022-11-26T04:30:30.392Z,5.26
2022-11-26T04:31:01.100Z,5.26
2022-11-26T04:31:32.252Z,5.26
2022-11-26T04:32:03.356Z,5.26
2022-11-26T04:32:34.799Z,5.26
2022-11-26T04:33:06.195Z,5.26
2022-11-26T04:33:36.407Z,5.26
2022-11-26T04:34:07.056Z,5.26
2022-11-26T04:34:38.527Z,5.26
2022-11-26T04:35:09.295Z,5.26
2022-11-26T04:35:40.109Z,5.26
2022-11-26T04:36:10.733Z,5.26
2022-11-26T04:36:42.458Z,5.26
2022-11-26T04:37:13.815Z,5.26
2022-11-26T04:38:15.508Z,5.36
2022-11-26T04:38:46.591Z,5.36
2022-11-26T04:39:17.051Z,5.36
2022-11-26T04:39:48.654Z,5.36
2022-11-26T04:40:19.710Z,5.36
2022-11-26T04:40:50.409Z,5.36
2022-11-26T04:41:38.604Z,5.36
2022-11-26T04:41:52.076Z,5.36
2022-11-26T04:42:23.692Z,5.36
2022-11-26T04:42:55.186Z,5.36
2022-11-26T04:43:26.043Z,5.36
2022-11-26T04:43:56.901Z,5.36
2022-11-26T04:44:27.763Z,5.36
2022-11-26T04:44:58.272Z,5.36
2022-11-26T04:45:29.427Z,5.26
2022-11-26T04:46:00.430Z,5.26
2022-11-26T04:46:31.141Z,5.26
2022-11-26T04:47:02.354Z,5.26
2022-11-26T04:47:33.825Z,5.26
2022-11-26T04:48:05.670Z,5.26
2022-11-26T04:48:36.409Z,5.26
2022-11-26T04:49:07.290Z,5.26
2022-11-26T04:49:37.783Z,5.26
2022-11-26T04:50:08.823Z,5.26
2022-11-26T04:50:38.816Z,5.26
2022-11-26T04:51:09.739Z,5.26
2022-11-26T04:51:41.417Z,5.26
2022-11-26T04:52:12.460Z,5.26
2022-11-26T04:52:44.779Z,5.26
2022-11-26T04:53:16.094Z,5.26
2022-11-26T04:54:03.427Z,5.26
2022-11-26T04:54:17.265Z,5.26
2022-11-26T04:54:48.351Z,5.26
2022-11-26T04:55:18.950Z,5.26
2022-11-26T04:55:49.005Z,5.26
2022-11-26T04:56:21.178Z,5.26
2022-11-26T04:56:51.713Z,5.26
2022-11-26T04:57:22.257Z,5.26
2022-11-26T04:58:25.637Z,5.36
2022-11-26T04:58:56.262Z,5.36
2022-11-26T04:59:27.690Z,5.36
2022-11-26T04:59:58.036Z,5.36
2022-11-26T05:00:28.491Z,5.36
2022-11-26T05:00:59.128Z,5.36
2022-11-26T05:01:30.232Z,5.36
2022-11-26T05:02:01.030Z,5.36
2022-11-26T05:03:03.488Z,5.36
2022-11-26T05:03:34.248Z,5.36
2022-11-26T05:04:05.653Z,5.36
2022-11-26T05:04:36.253Z,5.36
2022-11-26T05:05:08.575Z,5.36
2022-11-26T05:05:39.092Z,5.36
2022-11-26T05:06:10.216Z,5.36
2022-11-26T05:06:40.679Z,5.36
2022-11-26T05:07:11.232Z,5.36
2022-11-26T05:07:42.944Z,5.36
2022-11-26T05:08:13.198Z,5.36
2022-11-26T05:08:44.503Z,5.36
2022-11-26T05:09:16.111Z,5.46
2022-11-26T05:09:46.589Z,5.46
2022-11-26T05:10:18.005Z,5.46
2022-11-26T05:10:48.695Z,5.46
2022-11-26T05:11:20.389Z,5.46
2022-11-26T05:11:51.690Z,5.46
2022-11-26T05:12:22.456Z,5.46
2022-11-26T05:12:53.241Z,5.46
2022-11-26T05:13:23.209Z,5.46
2022-11-26T05:13:55.973Z,5.46
2022-11-26T05:14:26.102Z,5.46
2022-11-26T05:14:56.594Z,5.46
2022-11-26T05:15:27.869Z,5.46
2022-11-26T05:15:58.490Z,5.36
2022-11-26T05:16:30.727Z,5.36
2022-11-26T05:17:01.552Z,5.36
2022-11-26T05:17:32.349Z,5.36
2022-11-26T05:18:03.157Z,5.36
2022-11-26T05:18:33.181Z,5.36
2022-11-26T05:19:04.144Z,5.36
2022-11-26T05:19:36.130Z,5.36
2022-11-26T05:20:06.796Z,5.36
2022-11-26T05:20:37.179Z,5.36
2022-11-26T05:21:08.442Z,5.36
2022-11-26T05:21:39.420Z,5.36
2022-11-26T05:22:11.640Z,5.36
2022-11-26T05:22:42.073Z,5.36
2022-11-26T05:23:12.737Z,5.36
2022-11-26T05:23:43.418Z,5.36
2022-11-26T05:24:14.180Z,5.36
2022-11-26T05:24:45.914Z,5.36
2022-11-26T05:25:17.185Z,5.36
2022-11-26T05:25:47.428Z,5.36
2022-11-26T05:26:19.436Z,5.36
2022-11-26T05:27:08.745Z,5.36
2022-11-26T05:27:20.911Z,5.36
2022-11-26T05:27:51.929Z,5.36
2022-11-26T05:28:22.107Z,5.36
2022-11-26T05:28:53.207Z,5.36
2022-11-26T05:29:24.375Z,5.36
2022-11-26T05:29:55.792Z,5.36
2022-11-26T05:30:26.628Z,5.36
2022-11-26T05:30:57.249Z,5.36
2022-11-26T05:31:29.360Z,5.36
2022-11-26T05:32:00.542Z,5.36
2022-11-26T05:32:30.810Z,5.36
2022-11-26T05:33:01.643Z,5.36
2022-11-26T05:33:32.267Z,5.36
2022-11-26T05:34:15.758Z,5.36
2022-11-26T05:34:34.638Z,5.26
2022-11-26T05:35:15.881Z,5.26
2022-11-26T05:35:36.394Z,5.26
2022-11-26T05:36:08.054Z,5.26
2022-11-26T05:36:39.287Z,5.26
2022-11-26T05:37:09.361Z,5.26
2022-11-26T05:37:58.797Z,5.26
2022-11-26T05:38:11.848Z,5.26
2022-11-26T05:38:42.483Z,5.26
2022-11-26T05:39:12.881Z,5.16
2022-11-26T05:39:44.715Z,5.16
2022-11-26T05:40:15.766Z,5.16
2022-11-26T05:41:18.116Z,5.16
2022-11-26T05:41:49.382Z,5.16
2022-11-26T05:42:19.181Z,5.16
2022-11-26T05:42:51.680Z,5.06
2022-11-26T05:43:21.354Z,5.06
2022-11-26T05:43:53.226Z,5.06
2022-11-26T05:44:23.213Z,5.06
2022-11-26T05:44:55.159Z,5.06
2022-11-26T05:45:28.943Z,4.96
2022-11-26T05:45:56.735Z,4.96
2022-11-26T05:46:44.694Z,4.96
2022-11-26T05:47:14.527Z,4.96
2022-11-26T05:47:30.591Z,4.86
2022-11-26T05:48:00.703Z,4.86
2022-11-26T05:48:31.726Z,4.86
2022-11-26T05:49:03.053Z,4.76
2022-11-26T05:50:04.983Z,4.66
2022-11-26T05:50:35.487Z,4.56
2022-11-26T05:51:07.069Z,4.56
2022-11-26T05:51:38.370Z,4.56
2022-11-26T05:52:08.855Z,4.46
2022-11-26T05:52:39.246Z,4.46
2022-11-26T05:53:11.249Z,4.46
2022-11-26T05:53:41.638Z,4.36
2022-11-26T05:54:12.888Z,4.26
2022-11-26T05:54:43.637Z,4.26
2022-11-26T05:55:14.670Z,4.26
2022-11-26T05:55:45.676Z,4.16
2022-11-26T05:56:16.766Z,4.16
2022-11-26T05:56:48.658Z,4.16
2022-11-26T05:57:19.915Z,4.16
2022-11-26T05:57:50.709Z,4.16
2022-11-26T05:58:21.930Z,4.06
2022-11-26T05:58:52.143Z,4.06
2022-11-26T05:59:23.405Z,3.96
2022-11-26T05:59:53.880Z,3.86
2022-11-26T06:00:25.468Z,3.76
2022-11-26T06:00:55.736Z,3.66
2022-11-26T06:01:26.505Z,3.56
2022-11-26T06:01:58.597Z,3.56
2022-11-26T06:02:29.966Z,3.46
2022-11-26T06:02:59.806Z,3.46
2022-11-26T06:03:30.472Z,3.36
2022-11-26T06:04:01.594Z,3.36
2022-11-26T06:04:32.255Z,3.36
2022-11-26T06:05:03.217Z,3.36
2022-11-26T06:05:34.564Z,3.36
2022-11-26T06:06:05.366Z,3.36
2022-11-26T06:06:36.462Z,3.26
2022-11-26T06:07:08.279Z,3.26
2022-11-26T06:07:43.285Z,3.26
2022-11-26T06:08:09.738Z,3.16
2022-11-26T06:08:58.706Z,3.16
2022-11-26T06:09:11.395Z,3.06
2022-11-26T06:09:42.674Z,3.06
2022-11-26T06:10:18.203Z,3.06
2022-11-26T06:11:13.745Z,3.06
2022-11-26T06:11:46.699Z,2.96
2022-11-26T06:12:17.350Z,2.96
2022-11-26T06:12:48.485Z,2.96
2022-11-26T06:13:20.463Z,2.96
2022-11-26T06:14:10.082Z,2.96
2022-11-26T06:14:21.237Z,2.96
2022-11-26T06:14:52.407Z,2.96
2022-11-26T06:15:25.541Z,2.96
2022-11-26T06:15:57.918Z,2.96
2022-11-26T06:16:26.508Z,2.96
2022-11-26T06:17:01.694Z,2.96
2022-11-26T06:17:27.629Z,3.06
2022-11-26T06:17:58.543Z,3.16
2022-11-26T06:18:29.469Z,3.16
2022-11-26T06:19:01.355Z,3.26
2022-11-26T06:19:31.533Z,3.26
2022-11-26T06:20:09.127Z,3.26
2022-11-26T06:20:34.035Z,3.36
2022-11-26T06:21:05.675Z,3.36
2022-11-26T06:21:36.853Z,3.36
2022-11-26T06:22:07.092Z,3.36
2022-11-26T06:22:37.958Z,3.36
2022-11-26T06:23:08.950Z,3.16
2022-11-26T06:23:42.462Z,3.16
2022-11-26T06:24:10.721Z,3.16
2022-11-26T06:24:41.807Z,3.16
2022-11-26T06:25:12.924Z,3.16
2022-11-26T06:25:44.699Z,3.16
2022-11-26T06:26:26.148Z,3.16
2022-11-26T06:26:46.447Z,3.16
2022-11-26T06:27:17.100Z,3.06
2022-11-26T06:28:05.599Z,3.06
2022-11-26T06:28:18.570Z,3.06
2022-11-26T06:28:49.364Z,3.06
2022-11-26T06:29:24.808Z,2.96
2022-11-26T06:30:28.507Z,2.86
2022-11-26T06:30:53.949Z,2.76
2022-11-26T06:31:26.000Z,2.76
2022-11-26T06:31:56.391Z,2.76
2022-11-26T06:32:27.259Z,2.76
2022-11-26T06:32:58.163Z,2.76
2022-11-26T06:33:31.004Z,2.76
2022-11-26T06:34:09.248Z,2.76
2022-11-26T06:34:30.606Z,2.76
2022-11-26T06:35:01.620Z,2.76
2022-11-26T06:36:04.273Z,2.76
2022-11-26T06:36:51.421Z,2.76
2022-11-26T06:37:06.538Z,2.76
2022-11-26T06:37:37.277Z,2.76
2022-11-26T06:38:07.342Z,2.76
2022-11-26T06:38:38.533Z,2.76
2022-11-26T06:39:09.460Z,2.86
2022-11-26T06:39:40.251Z,2.86
2022-11-26T06:40:11.668Z,2.96
2022-11-26T06:40:46.628Z,2.96
2022-11-26T06:42:00.106Z,2.86
2022-11-26T06:42:16.369Z,2.86
2022-11-26T06:42:46.980Z,2.86
2022-11-26T06:43:17.623Z,2.86
2022-11-26T06:43:48.745Z,2.86
2022-11-26T06:44:20.320Z,2.76
2022-11-26T06:44:50.455Z,2.76
2022-11-26T06:45:22.435Z,2.76
2022-11-26T06:45:52.756Z,2.76
2022-11-26T06:46:29.096Z,2.66
2022-11-26T06:46:55.561Z,2.66
2022-11-26T06:47:26.926Z,2.66
2022-11-26T06:47:57.009Z,2.57
2022-11-26T06:48:28.232Z,2.57
2022-11-26T06:48:59.055Z,2.57
2022-11-26T06:49:29.777Z,2.57
2022-11-26T06:50:04.070Z,2.57
2022-11-26T06:50:32.086Z,2.57
2022-11-26T06:51:02.884Z,2.57
2022-11-26T06:51:34.426Z,2.57
2022-11-26T06:52:06.670Z,2.66
2022-11-26T06:52:36.930Z,2.66
2022-11-26T06:53:07.627Z,2.66
2022-11-26T06:54:08.822Z,2.66
2022-11-26T06:54:41.577Z,2.66
2022-11-26T06:55:41.711Z,2.76
2022-11-26T06:56:18.027Z,2.76
2022-11-26T06:56:45.973Z,2.76
2022-11-26T06:57:15.605Z,2.76
2022-11-26T06:57:46.703Z,2.66
2022-11-26T06:58:17.266Z,2.66
2022-11-26T06:58:47.651Z,2.66
2022-11-26T07:00:28.729Z,2.66
2022-11-26T07:01:01.163Z,2.57
2022-11-26T07:01:41.663Z,2.57
2022-11-26T07:01:55.195Z,2.57
2022-11-26T07:02:26.711Z,2.57
2022-11-26T07:02:58.100Z,2.47
2022-11-26T07:03:51.057Z,2.47
2022-11-26T07:04:16.284Z,2.47
2022-11-26T07:04:29.391Z,2.37
2022-11-26T07:04:59.877Z,2.37
2022-11-26T07:05:30.697Z,2.37
2022-11-26T07:06:02.356Z,2.37
2022-11-26T07:06:32.750Z,2.37
2022-11-26T07:07:35.591Z,2.27